Time;durP1;ratioP1;P1;durP2;ratioP2;P2;SDS_P1;SDS_P2;PMS_P1;PMS_P2;Temp;Humidity;BMP_temperature;BMP_pressure;BME280_temperature;BME280_humidity;BME280_pressure;Samples;Min_cycle;Max_cycle;Signal;HPM_P1;HPM_P2
2022/01/21 00:01:24;;;;;;;18.17;4.13;;;3.20;99.90;;;;;;6184521;23;20107;-81
2022/01/21 00:03:51;;;;;;;14.90;2.95;;;2.90;99.90;;;;;;6185510;23;20052;-81
2022/01/21 00:06:17;;;;;;;19.88;3.30;;;3.20;99.90;;;;;;6159207;23;20040;-80
2022/01/21 00:08:45;;;;;;;59.75;16.67;;;3.30;99.90;;;;;;6157952;23;20025;-80
2022/01/21 00:11:12;;;;;;;17.25;2.28;;;2.70;99.90;;;;;;6159205;23;20025;-80
2022/01/21 00:13:39;;;;;;;18.05;3.85;;;2.70;99.90;;;;;;6186286;23;20013;-81
2022/01/21 00:16:06;;;;;;;18.67;2.45;;;2.60;99.90;;;;;;6186706;23;20028;-80
2022/01/21 00:18:34;;;;;;;14.18;3.35;;;2.60;99.90;;;;;;6187179;23;20021;-80
2022/01/21 00:31:57;;;;;;;14.05;3.22;;;2.30;99.90;;;;;;6186996;23;20114;-81
2022/01/21 00:34:23;;;;;;;12.98;2.22;;;2.20;99.90;;;;;;6160841;23;20025;-81
2022/01/21 00:36:49;;;;;;;10.95;2.42;;;2.20;99.90;;;;;;6159871;23;20025;-81
2022/01/21 00:39:15;;;;;;;13.93;3.03;;;2.90;99.90;;;;;;6160716;23;20060;-81
2022/01/21 00:41:53;;;;;;;20.77;6.20;;;2.20;99.90;;;;;;6160641;23;20330;-80
2022/01/21 00:44:19;;;;;;;74.63;26.85;;;2.40;99.90;;;;;;6159874;23;20025;-80
2022/01/21 00:46:44;;;;;;;155.23;53.50;;;2.30;99.90;;;;;;6186923;23;20463;-81
2022/01/21 00:49:10;;;;;;;104.90;38.20;;;3.00;99.90;;;;;;6187142;23;20480;-80
2022/01/21 00:51:36;;;;;;;135.05;46.80;;;2.70;99.90;;;;;;6186249;23;20013;-80
2022/01/21 00:54:01;;;;;;;43.42;14.68;;;2.40;99.90;;;;;;6187200;23;20322;-80
2022/01/21 00:56:27;;;;;;;243.45;107.13;;;2.40;99.90;;;;;;6186898;23;20009;-81
2022/01/21 00:58:53;;;;;;;12.07;2.42;;;2.50;99.90;;;;;;6159768;23;20017;-81
2022/01/21 01:01:18;;;;;;;17.20;2.78;;;2.40;99.90;;;;;;6160596;23;20452;-81
2022/01/21 01:03:44;;;;;;;9.40;2.47;;;3.40;99.90;;;;;;6160154;23;20013;-80
2022/01/21 01:06:10;;;;;;;14.80;3.08;;;2.40;99.90;;;;;;6159550;23;20021;-80
2022/01/21 01:08:36;;;;;;;21.83;3.00;;;2.40;99.90;;;;;;6186846;23;20048;-81
2022/01/21 01:21:54;;;;;;;24.97;11.67;;;2.40;99.90;;;;;;6186658;23;20056;-80
2022/01/21 01:29:48;;;;;;;12.00;3.33;;;2.70;99.90;;;;;;6160103;23;20056;-80
2022/01/21 01:32:14;;;;;;;11.02;1.70;;;2.80;99.90;;;;;;6186782;23;20024;-80
2022/01/21 01:34:40;;;;;;;12.05;2.30;;;3.60;99.90;;;;;;6159319;23;20025;-80
2022/01/21 01:37:13;;;;;;;13.68;2.55;;;2.90;99.90;;;;;;6135636;23;20017;-81
2022/01/21 01:39:44;;;;;;;11.73;2.67;;;3.40;99.90;;;;;;6159451;23;20025;-81
2022/01/21 01:50:06;;;;;;;10.80;1.98;;;2.60;99.90;;;;;;6160059;23;20031;-80
2022/01/21 01:52:33;;;;;;;10.15;1.88;;;2.60;99.90;;;;;;6160045;23;20016;-80
2022/01/21 01:54:59;;;;;;;14.57;3.40;;;2.60;99.90;;;;;;6159136;23;20021;-80
2022/01/21 01:57:24;;;;;;;11.30;2.45;;;2.50;99.90;;;;;;6160028;23;20028;-81
2022/01/21 01:59:50;;;;;;;14.63;1.80;;;2.60;99.90;;;;;;6159938;23;20029;-81
2022/01/21 02:02:18;;;;;;;17.35;2.08;;;2.70;99.90;;;;;;6158806;23;20021;-80
2022/01/21 02:04:46;;;;;;;6.00;1.52;;;3.40;99.90;;;;;;6159800;23;20128;-81
2022/01/21 02:07:12;;;;;;;15.40;4.45;;;2.80;99.90;;;;;;6186501;23;20384;-80
2022/01/21 02:09:39;;;;;;;11.90;1.35;;;3.30;99.90;;;;;;6158663;23;20031;-80
2022/01/21 02:12:06;;;;;;;13.18;1.75;;;2.20;99.90;;;;;;6186708;23;20419;-81
2022/01/21 02:14:36;;;;;;;9.68;2.05;;;2.10;99.90;;;;;;6159907;23;20353;-81
2022/01/21 02:22:18;;;;;;;25.08;4.30;;;2.70;99.90;;;;;;6158778;23;20136;-80
2022/01/21 02:27:13;;;;;;;11.95;1.70;;;2.70;99.90;;;;;;6159718;23;20387;-79
2022/01/21 02:29:48;;;;;;;15.05;2.95;;;2.30;99.90;;;;;;6158613;23;20396;-80
2022/01/21 02:32:14;;;;;;;9.75;1.23;;;2.80;99.90;;;;;;6185876;23;20013;-80
2022/01/21 02:34:41;;;;;;;10.27;2.45;;;3.10;99.90;;;;;;6186080;23;20035;-79
2022/01/21 02:37:08;;;;;;;18.63;1.95;;;2.80;99.90;;;;;;6185148;23;20078;-80
2022/01/21 02:39:34;;;;;;;14.30;1.80;;;2.30;99.90;;;;;;6185953;23;20021;-80
2022/01/21 02:42:00;;;;;;;19.88;2.13;;;2.40;99.90;;;;;;6185961;23;20024;-80
2022/01/21 02:44:25;;;;;;;17.42;2.33;;;2.30;99.90;;;;;;6158824;23;20024;-80
2022/01/21 02:46:56;;;;;;;28.48;3.53;;;2.40;99.90;;;;;;6159145;23;20017;-80
2022/01/21 02:49:22;;;;;;;17.90;1.70;;;3.10;99.90;;;;;;6159613;23;20075;-80
2022/01/21 02:51:49;;;;;;;21.98;1.95;;;2.50;99.90;;;;;;6185363;23;20079;-80
2022/01/21 02:54:15;;;;;;;10.15;1.92;;;3.30;99.90;;;;;;6186300;23;20016;-80
2022/01/21 02:56:41;;;;;;;16.13;2.50;;;2.90;99.90;;;;;;6186267;23;20047;-80
2022/01/21 02:59:08;;;;;;;11.80;1.77;;;2.10;99.90;;;;;;6158680;23;20427;-79
2022/01/21 03:01:36;;;;;;;19.65;2.10;;;3.00;99.90;;;;;;6185840;23;20025;-79
2022/01/21 03:04:08;;;;;;;11.00;2.05;;;2.10;99.90;;;;;;6185495;23;20045;-79
2022/01/21 03:06:36;;;;;;;11.70;2.63;;;3.20;99.90;;;;;;6186249;23;20079;-79
2022/01/21 03:09:06;;;;;;;14.38;2.22;;;2.10;99.90;;;;;;6159130;23;20400;-79
2022/01/21 03:11:32;;;;;;;21.65;2.15;;;2.10;99.90;;;;;;6185291;23;20024;-79
2022/01/21 03:13:57;;;;;;;19.77;2.13;;;2.90;99.90;;;;;;6186147;23;20440;-79
2022/01/21 03:16:24;;;;;;;15.90;2.22;;;2.40;99.90;;;;;;6185979;23;20318;-79
2022/01/21 03:18:51;;;;;;;13.85;1.95;;;2.30;99.90;;;;;;6158395;23;20380;-79
2022/01/21 03:21:17;;;;;;;8.15;1.42;;;3.10;99.90;;;;;;6159136;23;20013;-79
2022/01/21 03:23:46;;;;;;;9.98;2.63;;;2.10;99.90;;;;;;6159497;23;20028;-79
2022/01/21 03:26:14;;;;;;;16.80;2.10;;;2.30;99.90;;;;;;6158808;23;20017;-79
2022/01/21 03:28:40;;;;;;;12.40;1.70;;;2.10;99.90;;;;;;6159419;23;20031;-79
2022/01/21 03:31:06;;;;;;;7.43;1.35;;;2.50;99.90;;;;;;6159351;23;20440;-79
2022/01/21 03:33:32;;;;;;;13.10;1.90;;;2.10;99.90;;;;;;6158192;23;20044;-79
2022/01/21 03:35:58;;;;;;;18.45;1.60;;;2.10;99.90;;;;;;6186014;23;20441;-80
2022/01/21 03:38:26;;;;;;;10.30;1.52;;;2.10;99.90;;;;;;6185690;23;20017;-80
2022/01/21 03:40:53;;;;;;;11.75;1.83;;;2.80;99.90;;;;;;6185003;23;20025;-79
2022/01/21 03:43:20;;;;;;;17.65;2.22;;;2.00;99.90;;;;;;6159397;23;20087;-79
2022/01/21 03:45:46;;;;;;;18.73;2.20;;;1.90;99.90;;;;;;6186030;23;20020;-80
2022/01/21 03:48:12;;;;;;;16.67;2.53;;;3.00;99.90;;;;;;6158821;23;20096;-79
2022/01/21 03:50:38;;;;;;;12.43;1.77;;;2.10;99.90;;;;;;6187464;23;20056;-80
2022/01/21 03:53:04;;;;;;;9.32;2.10;;;1.80;99.90;;;;;;6161192;23;20429;-80
2022/01/21 03:55:30;;;;;;;20.08;3.78;;;1.70;99.90;;;;;;6160294;23;20021;-80
2022/01/21 03:57:57;;;;;;;18.65;2.88;;;1.70;99.90;;;;;;6161118;23;20088;-79
2022/01/21 04:00:27;;;;;;;14.18;3.05;;;1.70;99.90;;;;;;6160333;23;20025;-80
2022/01/21 04:02:53;;;;;;;16.10;1.90;;;1.60;99.90;;;;;;6160887;23;20403;-80
2022/01/21 04:05:19;;;;;;;12.25;1.90;;;1.60;99.90;;;;;;6187686;23;20048;-80
2022/01/21 04:07:45;;;;;;;18.98;2.20;;;1.60;99.90;;;;;;6186792;23;20017;-80
2022/01/21 04:10:11;;;;;;;14.60;2.38;;;2.40;99.90;;;;;;6187155;23;20056;-79
2022/01/21 04:12:37;;;;;;;13.75;2.33;;;2.20;99.90;;;;;;6187616;23;20019;-79
2022/01/21 04:15:04;;;;;;;11.05;2.08;;;2.70;99.90;;;;;;6186837;23;20481;-79
2022/01/21 04:17:30;;;;;;;16.73;2.90;;;1.90;99.90;;;;;;6187176;23;20027;-79
2022/01/21 04:19:56;;;;;;;22.48;2.92;;;2.00;99.90;;;;;;6161466;23;20049;-79
2022/01/21 04:22:22;;;;;;;17.60;2.53;;;2.00;99.90;;;;;;6186658;23;20337;-79
2022/01/21 04:24:49;;;;;;;19.90;2.90;;;2.10;99.90;;;;;;6187493;23;20411;-79
2022/01/21 04:27:16;;;;;;;24.23;4.20;;;2.10;99.90;;;;;;6187591;23;20078;-80
2022/01/21 04:29:42;;;;;;;14.50;2.30;;;2.40;99.90;;;;;;6159809;23;20027;-79
2022/01/21 04:32:09;;;;;;;24.70;2.70;;;2.10;99.90;;;;;;6187049;23;20025;-80
2022/01/21 04:34:36;;;;;;;12.75;2.22;;;2.10;99.90;;;;;;6160774;23;20044;-79
2022/01/21 04:37:05;;;;;;;15.93;2.65;;;2.10;99.90;;;;;;6186136;23;20021;-79
2022/01/21 04:39:36;;;;;;;15.00;2.10;;;2.00;99.90;;;;;;6161003;23;20459;-79
2022/01/21 04:47:35;;;;;;;16.58;2.60;;;3.00;99.90;;;;;;6187227;23;20055;-80
2022/01/21 04:50:08;;;;;;;7.95;1.75;;;1.90;99.90;;;;;;6159660;23;20087;-79
2022/01/21 04:52:34;;;;;;;12.75;1.85;;;2.10;99.90;;;;;;6187417;23;20092;-80
2022/01/21 04:54:59;;;;;;;15.90;1.90;;;2.60;99.90;;;;;;6187020;23;20130;-80
2022/01/21 04:57:25;;;;;;;19.00;2.35;;;2.10;99.90;;;;;;6159553;23;20013;-79
2022/01/21 04:59:51;;;;;;;13.70;2.10;;;2.10;99.90;;;;;;6160431;23;20351;-79
2022/01/21 05:02:17;;;;;;;15.10;2.15;;;1.70;99.90;;;;;;6160485;23;20024;-80
2022/01/21 05:04:42;;;;;;;19.30;3.40;;;1.70;99.90;;;;;;6186387;23;20052;-79
2022/01/21 05:07:11;;;;;;;16.40;2.55;;;1.60;99.90;;;;;;6160537;23;20433;-79
2022/01/21 05:09:37;;;;;;;16.33;2.00;;;1.60;99.90;;;;;;6160158;23;20085;-80
2022/01/21 05:12:08;;;;;;;17.17;2.53;;;2.60;99.90;;;;;;6186188;23;20087;-80
2022/01/21 05:17:10;;;;;;;14.52;3.47;;;1.80;99.90;;;;;;6186751;23;20023;-80
2022/01/21 05:19:36;;;;;;;12.50;1.50;;;2.30;99.90;;;;;;6159615;23;20039;-80
2022/01/21 05:22:03;;;;;;;15.85;1.58;;;2.00;99.90;;;;;;6187051;23;20017;-80
2022/01/21 05:24:29;;;;;;;17.55;2.38;;;1.60;99.90;;;;;;6186676;23;20060;-79
2022/01/21 05:26:58;;;;;;;16.40;1.80;;;1.60;99.90;;;;;;6159300;23;20021;-80
2022/01/21 05:29:25;;;;;;;20.23;3.67;;;2.60;99.90;;;;;;6160204;23;20019;-80
2022/01/21 05:31:52;;;;;;;12.30;2.47;;;2.00;99.90;;;;;;6159188;23;20061;-80
2022/01/21 05:34:18;;;;;;;22.27;4.32;;;2.50;99.90;;;;;;6160177;23;20028;-80
2022/01/21 05:36:44;;;;;;;18.65;1.80;;;1.90;99.90;;;;;;6186851;23;20017;-80
2022/01/21 05:39:11;;;;;;;18.83;2.83;;;2.80;99.90;;;;;;6159550;23;20460;-80
2022/01/21 05:41:38;;;;;;;15.75;1.88;;;2.50;99.90;;;;;;6160193;23;20021;-80
2022/01/21 05:44:12;;;;;;;16.30;2.00;;;1.60;99.90;;;;;;6160065;23;20028;-80
2022/01/21 05:49:15;;;;;;;18.73;1.77;;;1.70;99.90;;;;;;6160112;23;20056;-80
2022/01/21 05:51:42;;;;;;;10.85;1.60;;;2.40;99.90;;;;;;6160036;23;20021;-80
2022/01/21 05:54:08;;;;;;;12.48;1.80;;;1.70;99.90;;;;;;6159240;23;20453;-80
2022/01/21 05:56:34;;;;;;;14.60;2.28;;;1.70;99.90;;;;;;6186278;23;20492;-80
2022/01/21 05:59:00;;;;;;;23.85;2.45;;;2.60;99.90;;;;;;6186728;23;20017;-80
2022/01/21 06:01:29;;;;;;;12.07;1.30;;;2.50;99.90;;;;;;6185616;23;20025;-80
2022/01/21 06:03:55;;;;;;;12.30;1.75;;;1.70;99.90;;;;;;6186155;23;20020;-80
2022/01/21 06:06:21;;;;;;;12.80;2.20;;;1.70;99.90;;;;;;6186681;23;20341;-80
2022/01/21 06:08:47;;;;;;;11.30;1.60;;;1.80;99.90;;;;;;6129240;23;20100;-80
2022/01/21 06:11:13;;;;;;;19.92;2.47;;;1.70;99.90;;;;;;6156262;23;20073;-80
2022/01/21 06:13:39;;;;;;;19.08;1.95;;;1.70;99.90;;;;;;6154965;23;20021;-80
2022/01/21 06:16:05;;;;;;;19.25;2.10;;;1.70;99.90;;;;;;6154074;23;20025;-80
2022/01/21 06:18:31;;;;;;;16.13;2.75;;;1.60;99.90;;;;;;6154713;23;20088;-80
2022/01/21 06:20:56;;;;;;;15.50;1.52;;;1.60;99.90;;;;;;6153976;23;20021;-80
2022/01/21 06:23:22;;;;;;;7.47;1.55;;;2.80;99.90;;;;;;6154812;23;20445;-80
2022/01/21 06:25:48;;;;;;;17.92;2.63;;;2.00;99.90;;;;;;6154863;23;20021;-80
2022/01/21 06:28:14;;;;;;;22.13;2.30;;;2.20;99.90;;;;;;6155680;23;20034;-80
2022/01/21 06:30:39;;;;;;;16.35;2.67;;;2.00;99.90;;;;;;6156291;23;20032;-80
2022/01/21 06:33:05;;;;;;;24.95;2.22;;;2.00;99.90;;;;;;6156300;23;20026;-80
2022/01/21 06:35:31;;;;;;;12.23;1.60;;;2.10;99.90;;;;;;6153850;23;20021;-80
2022/01/21 06:37:57;;;;;;;18.30;3.35;;;3.40;99.90;;;;;;6154715;23;20104;-80
2022/01/21 06:40:23;;;;;;;11.98;2.40;;;2.30;99.90;;;;;;6154728;23;20021;-79
2022/01/21 06:42:50;;;;;;;13.98;1.85;;;2.40;99.90;;;;;;6155372;23;20022;-80
2022/01/21 06:45:17;;;;;;;16.33;1.77;;;2.60;99.90;;;;;;6156248;23;20052;-80
2022/01/21 06:47:43;;;;;;;7.65;1.50;;;2.40;99.90;;;;;;6156925;23;20020;-79
2022/01/21 06:50:10;;;;;;;17.27;1.55;;;2.30;99.90;;;;;;6153679;23;20056;-79
2022/01/21 06:52:36;;;;;;;15.75;1.98;;;3.00;99.90;;;;;;6154630;23;20024;-79
2022/01/21 06:55:02;;;;;;;20.83;2.50;;;2.30;99.90;;;;;;6156411;23;20017;-78
2022/01/21 06:57:29;;;;;;;15.93;3.05;;;2.30;99.90;;;;;;6155515;23;20010;-79
2022/01/21 06:59:55;;;;;;;14.73;1.90;;;2.20;99.90;;;;;;6154606;23;20024;-79
2022/01/21 07:02:21;;;;;;;15.38;3.53;;;2.30;99.90;;;;;;6156338;23;20017;-80
2022/01/21 07:04:48;;;;;;;12.63;1.73;;;2.90;99.90;;;;;;6153683;23;20026;-81
2022/01/21 07:07:15;;;;;;;17.60;2.05;;;2.40;99.90;;;;;;6154584;23;20056;-81
2022/01/21 07:09:41;;;;;;;13.40;2.10;;;3.10;99.90;;;;;;6175061;23;20472;-81
2022/01/21 07:12:07;;;;;;;11.93;1.63;;;2.90;99.90;;;;;;6184734;23;20461;-81
2022/01/21 07:14:33;;;;;;;15.82;2.35;;;2.00;99.90;;;;;;6159599;23;20047;-81
2022/01/21 07:16:58;;;;;;;14.75;2.10;;;2.10;99.90;;;;;;6159056;23;20510;-80
2022/01/21 07:19:24;;;;;;;12.13;1.88;;;3.30;99.90;;;;;;6184842;23;20017;-80
2022/01/21 07:21:50;;;;;;;10.75;1.85;;;2.10;99.90;;;;;;6159692;23;20032;-81
2022/01/21 07:24:16;;;;;;;18.88;2.50;;;2.10;99.90;;;;;;6160530;23;20021;-81
2022/01/21 07:26:42;;;;;;;20.70;1.60;;;2.10;99.90;;;;;;6188297;23;20128;-81
2022/01/21 07:29:08;;;;;;;20.58;2.30;;;2.20;99.90;;;;;;6161247;23;20461;-80
2022/01/21 07:31:34;;;;;;;22.52;2.53;;;3.10;99.90;;;;;;6160374;23;20021;-77
2022/01/21 07:34:04;;;;;;;14.95;2.55;;;2.30;99.90;;;;;;6187829;23;20017;-79
2022/01/21 07:36:31;;;;;;;25.95;2.88;;;2.40;99.90;;;;;;6161340;23;20495;-79
2022/01/21 07:38:57;;;;;;;12.93;1.70;;;3.40;99.90;;;;;;6186953;23;20096;-79
2022/01/21 07:41:23;;;;;;;12.45;2.25;;;2.40;99.90;;;;;;6187607;23;20017;-78
2022/01/21 07:43:49;;;;;;;15.90;2.08;;;2.40;99.90;;;;;;6187896;23;20016;-77
2022/01/21 07:46:16;;;;;;;12.70;1.60;;;2.40;99.90;;;;;;6186554;23;20324;-79
2022/01/21 07:48:42;;;;;;;18.15;2.22;;;2.40;99.90;;;;;;6157351;23;20019;-77
2022/01/21 07:51:08;;;;;;;15.95;2.75;;;3.20;99.90;;;;;;6158305;23;20025;-77
2022/01/21 07:53:33;;;;;;;16.65;2.30;;;2.30;99.90;;;;;;6182088;23;20059;-78
2022/01/21 07:56:00;;;;;;;16.00;2.38;;;2.20;99.90;;;;;;6183536;23;20025;-77
2022/01/21 07:58:26;;;;;;;15.13;2.15;;;2.20;99.90;;;;;;6182797;23;20020;-79
2022/01/21 08:00:52;;;;;;;11.88;1.60;;;2.10;99.90;;;;;;6181863;23;20108;-79
2022/01/21 08:03:17;;;;;;;14.90;1.65;;;2.10;99.90;;;;;;6156527;23;20021;-79
2022/01/21 08:05:44;;;;;;;16.75;2.13;;;2.80;99.90;;;;;;6158252;23;20027;-79
2022/01/21 08:08:10;;;;;;;24.15;3.13;;;2.00;99.90;;;;;;6159828;23;20029;-79
2022/01/21 08:10:36;;;;;;;16.27;2.10;;;2.00;99.90;;;;;;6158314;23;20445;-79
2022/01/21 08:13:02;;;;;;;14.73;2.42;;;2.00;99.90;;;;;;6160711;23;20464;-79
2022/01/21 08:15:28;;;;;;;14.25;2.17;;;2.80;99.90;;;;;;6159496;23;20017;-79
2022/01/21 08:17:54;;;;;;;19.95;2.33;;;2.00;99.90;;;;;;6185779;23;20029;-79
2022/01/21 08:20:20;;;;;;;12.77;3.78;;;1.90;99.90;;;;;;6186002;23;20334;-79
2022/01/21 08:22:46;;;;;;;17.92;2.67;;;2.30;99.90;;;;;;6160106;23;20083;-79
2022/01/21 08:25:12;;;;;;;12.35;1.90;;;1.90;99.90;;;;;;6160518;23;20025;-79
2022/01/21 08:27:38;;;;;;;15.30;1.98;;;1.90;99.90;;;;;;6186229;23;20017;-79
2022/01/21 08:30:05;;;;;;;18.58;2.95;;;2.10;99.90;;;;;;6187140;23;20017;-79
2022/01/21 08:32:31;;;;;;;14.82;2.15;;;1.90;99.90;;;;;;6160256;23;20096;-79
2022/01/21 08:34:57;;;;;;;18.15;2.08;;;1.90;99.90;;;;;;6159593;23;20065;-79
2022/01/21 08:37:23;;;;;;;22.35;2.58;;;1.90;99.90;;;;;;6160721;23;20021;-79
2022/01/21 08:39:50;;;;;;;18.45;2.35;;;2.00;99.90;;;;;;6187425;23;20460;-79
2022/01/21 08:42:16;;;;;;;20.77;2.13;;;2.30;99.90;;;;;;6158415;23;20024;-79
2022/01/21 08:44:42;;;;;;;22.92;2.78;;;2.10;99.90;;;;;;6187052;23;20384;-79
2022/01/21 08:47:07;;;;;;;22.80;2.30;;;2.20;99.90;;;;;;6186207;23;20020;-80
2022/01/21 08:49:33;;;;;;;16.35;3.13;;;2.30;99.90;;;;;;6186289;23;20017;-80
2022/01/21 08:52:00;;;;;;;23.30;2.95;;;2.40;99.90;;;;;;6186924;23;20323;-80
2022/01/21 08:54:27;;;;;;;23.35;2.80;;;2.70;99.90;;;;;;6160600;23;20048;-80
2022/01/21 08:56:54;;;;;;;22.52;3.05;;;2.80;99.90;;;;;;6185955;23;20022;-80
2022/01/21 08:59:21;;;;;;;17.20;2.40;;;2.90;99.90;;;;;;6159738;23;20507;-80
2022/01/21 09:01:51;;;;;;;14.43;3.20;;;3.00;99.90;;;;;;6185781;23;20504;-80
2022/01/21 09:04:17;;;;;;;27.08;2.97;;;3.00;99.90;;;;;;6159562;23;20021;-80
2022/01/21 09:06:43;;;;;;;16.33;3.03;;;3.10;99.90;;;;;;6187191;23;20094;-79
2022/01/21 09:09:09;;;;;;;18.95;2.55;;;3.20;99.90;;;;;;6159999;23;20044;-79
2022/01/21 09:11:35;;;;;;;18.60;3.13;;;3.30;99.90;;;;;;6159033;23;20079;-79
2022/01/21 09:14:02;;;;;;;14.30;2.60;;;3.60;99.90;;;;;;6160086;23;20021;-78
2022/01/21 09:16:28;;;;;;;12.60;1.95;;;3.50;99.90;;;;;;6159795;23;20377;-78
2022/01/21 09:18:57;;;;;;;18.50;2.20;;;3.60;99.90;;;;;;6159018;23;20024;-78
2022/01/21 09:21:26;;;;;;;7.70;2.28;;;3.60;99.90;;;;;;6160373;23;20021;-78
2022/01/21 09:23:54;;;;;;;20.25;2.70;;;3.70;99.90;;;;;;6159262;23;20025;-78
2022/01/21 09:26:22;;;;;;;16.10;3.22;;;4.30;99.90;;;;;;6186733;23;20017;-78
2022/01/21 09:28:49;;;;;;;16.48;1.98;;;3.80;99.90;;;;;;6186597;23;20071;-78
2022/01/21 09:31:16;;;;;;;17.50;2.67;;;3.80;99.90;;;;;;6185145;23;20044;-78
2022/01/21 09:33:42;;;;;;;14.40;2.15;;;3.80;99.90;;;;;;6186453;23;20084;-78
2022/01/21 09:36:11;;;;;;;19.35;3.60;;;3.90;99.90;;;;;;6160253;23;20445;-78
2022/01/21 09:38:37;;;;;;;16.77;1.90;;;4.10;99.90;;;;;;6186146;23;20013;-78
2022/01/21 09:41:04;;;;;;;10.60;1.77;;;4.00;99.90;;;;;;6159342;23;20021;-78
2022/01/21 09:43:33;;;;;;;13.82;1.90;;;4.10;99.90;;;;;;6160123;23;20024;-78
2022/01/21 09:46:04;;;;;;;16.77;1.90;;;4.10;99.90;;;;;;6185040;23;20021;-78
2022/01/21 09:48:36;;;;;;;13.52;2.30;;;4.10;99.90;;;;;;6186024;23;20057;-78
2022/01/21 09:51:02;;;;;;;20.80;2.60;;;4.20;99.90;;;;;;6186685;23;20020;-78
2022/01/21 09:53:31;;;;;;;19.75;2.72;;;4.30;99.90;;;;;;6159157;23;20441;-78
2022/01/21 09:55:58;;;;;;;19.02;2.65;;;4.30;99.90;;;;;;6159992;23;20354;-78
2022/01/21 09:58:26;;;;;;;35.60;3.92;;;4.40;99.90;;;;;;6159728;23;20067;-78
2022/01/21 10:00:53;;;;;;;20.23;2.78;;;4.40;99.90;;;;;;6158846;23;20027;-78
2022/01/21 10:03:19;;;;;;;19.17;3.08;;;4.50;99.90;;;;;;6186188;23;20139;-79
2022/01/21 10:05:46;;;;;;;21.08;2.83;;;4.60;99.90;;;;;;6186174;23;20491;-78
2022/01/21 10:08:14;;;;;;;27.20;2.85;;;4.60;99.90;;;;;;6185355;23;20326;-79
2022/01/21 10:10:41;;;;;;;31.13;3.42;;;4.60;99.90;;;;;;6159513;23;20060;-79
2022/01/21 10:13:08;;;;;;;28.15;3.95;;;4.70;99.90;;;;;;6184877;23;20017;-78
2022/01/21 10:15:36;;;;;;;28.58;4.38;;;4.80;99.90;;;;;;6186199;23;20015;-79
2022/01/21 10:18:17;;;;;;;16.77;2.53;;;4.90;99.90;;;;;;6185190;23;20437;-79
2022/01/21 10:21:04;;;;;;;27.67;3.42;;;4.90;99.90;;;;;;6158638;23;20032;-79
2022/01/21 10:23:31;;;;;;;24.88;3.78;;;4.90;99.90;;;;;;6186649;23;20024;-79
2022/01/21 10:26:05;;;;;;;35.05;3.30;;;5.00;99.90;;;;;;6186007;23;20072;-78
2022/01/21 10:28:33;;;;;;;24.73;3.15;;;5.00;99.90;;;;;;6185137;23;20013;-79
2022/01/21 10:31:10;;;;;;;24.10;2.60;;;5.00;99.90;;;;;;6182645;23;20021;-79
2022/01/21 10:33:43;;;;;;;23.52;4.03;;;5.10;99.90;;;;;;6182162;23;20090;-80
2022/01/21 10:36:23;;;;;;;27.17;3.20;;;5.10;99.90;;;;;;6154778;23;20099;-79
2022/01/21 10:38:51;;;;;;;23.77;3.13;;;5.20;99.90;;;;;;6182681;23;20017;-77
2022/01/21 10:41:21;;;;;;;27.83;3.70;;;5.30;99.90;;;;;;6180829;23;20024;-79
2022/01/21 10:44:16;;;;;;;24.50;2.53;;;5.40;99.90;;;;;;6182063;23;20063;-77
2022/01/21 10:46:49;;;;;;;31.10;3.60;;;5.50;99.90;;;;;;6181787;23;20032;-77
2022/01/21 10:49:16;;;;;;;18.27;2.80;;;5.60;99.90;;;;;;6185163;23;20017;-79
2022/01/21 10:51:49;;;;;;;25.73;2.97;;;5.70;99.90;;;;;;6186042;23;20017;-77
2022/01/21 10:54:22;;;;;;;14.75;2.63;;;5.80;99.90;;;;;;6186297;23;20017;-79
2022/01/21 10:57:09;;;;;;;17.27;2.97;;;5.90;99.90;;;;;;6154783;23;20025;-78
2022/01/21 10:59:52;;;;;;;17.23;3.20;;;6.10;99.90;;;;;;6181549;23;20071;-78
2022/01/21 11:02:42;;;;;;;19.55;3.75;;;6.20;99.90;;;;;;6181694;23;20023;-77
2022/01/21 11:05:15;;;;;;;16.15;2.33;;;6.30;99.90;;;;;;6159524;23;20025;-78
2022/01/21 11:08:06;;;;;;;18.75;3.92;;;6.40;99.90;;;;;;6185862;23;20445;-78
2022/01/21 11:10:32;;;;;;;20.55;6.80;;;6.40;99.90;;;;;;6183927;23;20097;-76
2022/01/21 11:12:59;;;;;;;14.30;2.53;;;6.50;99.90;;;;;;6181316;23;20076;-76
2022/01/21 11:15:37;;;;;;;10.95;2.50;;;6.50;99.90;;;;;;6154932;23;20120;-76
2022/01/21 11:18:03;;;;;;;19.23;2.72;;;6.60;99.90;;;;;;6182957;23;20043;-76
2022/01/21 11:20:37;;;;;;;13.40;2.38;;;6.60;99.90;;;;;;6186116;23;20017;-77
2022/01/21 11:23:03;;;;;;;18.85;2.40;;;6.70;99.90;;;;;;6186137;23;20095;-80
2022/01/21 11:25:48;;;;;;;10.00;2.38;;;6.70;99.90;;;;;;6178782;23;20112;-80
2022/01/21 11:28:16;;;;;;;19.88;2.63;;;6.80;99.90;;;;;;6157924;23;20021;-80
2022/01/21 11:30:43;;;;;;;18.20;2.15;;;6.80;99.90;;;;;;6154448;23;20021;-79
2022/01/21 11:33:09;;;;;;;14.65;2.47;;;6.90;99.90;;;;;;6181674;23;20329;-80
2022/01/21 11:35:35;;;;;;;9.82;2.25;;;6.90;99.90;;;;;;6154341;23;20528;-80
2022/01/21 11:38:12;;;;;;;13.13;2.20;;;6.90;99.90;;;;;;6180432;23;20088;-80
2022/01/21 11:40:40;;;;;;;18.63;3.05;;;7.00;99.90;;;;;;6181609;23;20013;-80
2022/01/21 11:43:08;;;;;;;15.52;2.92;;;7.00;99.90;;;;;;6181873;23;20085;-80
2022/01/21 11:50:48;;;;;;;7.72;1.35;;;7.10;99.90;;;;;;6185740;23;20021;-80
2022/01/21 11:53:14;;;;;;;15.27;2.25;;;7.00;99.90;;;;;;6183563;23;20052;-80
2022/01/21 11:55:46;;;;;;;13.10;3.22;;;7.10;99.90;;;;;;6185870;23;20013;-81
2022/01/21 11:58:12;;;;;;;14.52;2.78;;;7.00;99.90;;;;;;6185323;23;20025;-79
2022/01/21 12:00:40;;;;;;;14.27;2.38;;;7.10;99.90;;;;;;6184418;23;20092;-79
2022/01/21 12:03:07;;;;;;;16.75;3.63;;;7.10;99.90;;;;;;6185265;23;20513;-80
2022/01/21 12:05:36;;;;;;;12.88;2.35;;;7.10;99.90;;;;;;6184485;23;20080;-81
2022/01/21 12:08:06;;;;;;;11.77;2.33;;;7.00;99.90;;;;;;6158171;23;20021;-81
2022/01/21 12:13:30;;;;;;;14.68;1.80;;;7.00;99.90;;;;;;6186377;23;20021;-81
2022/01/21 12:19:19;;;;;;;11.65;2.33;;;7.00;99.90;;;;;;6187127;23;20024;-80
2022/01/21 12:21:45;;;;;;;13.38;2.95;;;7.00;99.90;;;;;;6186649;23;20021;-79
2022/01/21 12:24:12;;;;;;;15.05;3.22;;;7.10;99.90;;;;;;6187244;23;20013;-79
2022/01/21 12:26:56;;;;;;;62.35;38.20;;;7.10;99.90;;;;;;6159898;23;20382;-78
2022/01/21 12:29:24;;;;;;;38.75;19.42;;;7.20;99.90;;;;;;6187125;23;20017;-79
2022/01/21 12:31:59;;;;;;;15.57;5.00;;;7.20;99.90;;;;;;6187382;23;20021;-79
2022/01/21 12:34:26;;;;;;;25.48;6.90;;;7.20;99.90;;;;;;6186140;23;20438;-78
2022/01/21 12:37:15;;;;;;;14.18;2.38;;;7.30;99.90;;;;;;6187487;23;20045;-79
2022/01/21 12:39:45;;;;;;;22.42;2.97;;;7.30;99.90;;;;;;6187428;23;20027;-78
2022/01/21 12:42:35;;;;;;;13.07;1.80;;;7.30;99.90;;;;;;6186546;23;20039;-79
2022/01/21 12:45:07;;;;;;;11.88;1.92;;;7.20;99.90;;;;;;6187499;23;20334;-80
2022/01/21 12:47:44;;;;;;;14.35;2.70;;;7.20;99.90;;;;;;6187368;23;20017;-79
2022/01/21 12:50:45;;;;;;;12.43;2.42;;;7.10;99.90;;;;;;6186782;23;20100;-79
2022/01/21 12:53:22;;;;;;;14.48;2.05;;;7.10;99.90;;;;;;6161622;23;20025;-79
2022/01/21 12:56:03;;;;;;;13.73;2.58;;;7.10;99.90;;;;;;6185929;23;20021;-79
2022/01/21 12:58:31;;;;;;;18.42;2.58;;;7.00;99.90;;;;;;6187038;23;20017;-79
2022/01/21 13:01:00;;;;;;;17.33;2.97;;;7.00;99.90;;;;;;6187060;23;20096;-79
2022/01/21 13:03:46;;;;;;;12.85;2.20;;;7.00;99.90;;;;;;6186211;23;20013;-80
2022/01/21 13:06:53;;;;;;;17.02;3.17;;;7.10;99.90;;;;;;6160545;23;20330;-80
2022/01/21 13:09:23;;;;;;;24.38;3.05;;;7.10;99.90;;;;;;6185767;23;20017;-79
2022/01/21 13:11:55;;;;;;;19.17;2.50;;;7.00;99.90;;;;;;6186735;23;20476;-79
2022/01/21 13:17:00;;;;;;;19.92;3.75;;;7.10;99.90;;;;;;6186131;23;20105;-80
2022/01/21 13:19:27;;;;;;;11.88;2.15;;;7.10;99.90;;;;;;6187024;23;20033;-81
2022/01/21 13:21:53;;;;;;;23.58;3.95;;;7.10;99.90;;;;;;6186549;23;20468;-80
2022/01/21 13:24:30;;;;;;;20.42;4.53;;;7.10;99.90;;;;;;6186141;23;20017;-83
2022/01/21 13:26:57;;;;;;;19.30;2.83;;;7.10;99.90;;;;;;6187150;23;20084;-83
2022/01/21 13:29:37;;;;;;;23.00;4.30;;;7.10;99.90;;;;;;6160388;23;20087;-83
2022/01/21 13:32:05;;;;;;;17.52;2.47;;;7.10;99.90;;;;;;6184388;23;20025;-83
2022/01/21 13:34:40;;;;;;;18.00;2.70;;;7.10;99.90;;;;;;6135899;23;20025;-82
2022/01/21 13:37:09;;;;;;;17.30;3.17;;;7.10;99.90;;;;;;6185890;23;20024;-84
2022/01/21 13:39:40;;;;;;;27.73;3.17;;;7.20;99.90;;;;;;6160102;23;20024;-84
2022/01/21 13:42:22;;;;;;;19.38;3.47;;;7.20;99.90;;;;;;6159538;23;20028;-82
2022/01/21 13:44:51;;;;;;;15.90;2.60;;;7.20;99.90;;;;;;6158775;23;20024;-82
2022/01/21 13:47:39;;;;;;;22.75;4.03;;;7.20;99.90;;;;;;6186457;23;20092;-82
2022/01/21 13:50:12;;;;;;;26.33;4.30;;;7.10;99.90;;;;;;6185983;23;20368;-83
2022/01/21 13:52:46;;;;;;;20.33;3.03;;;7.20;99.90;;;;;;6185805;23;20021;-83
2022/01/21 13:55:39;;;;;;;19.80;2.67;;;7.20;99.90;;;;;;6159997;23;20017;-83
2022/01/21 13:58:15;;;;;;;23.80;3.35;;;7.10;99.90;;;;;;6185827;23;20017;-82
2022/01/21 14:00:57;;;;;;;23.92;3.25;;;7.10;99.90;;;;;;6186337;23;20048;-83
2022/01/21 14:03:29;;;;;;;24.77;3.03;;;7.20;99.90;;;;;;6186379;23;20090;-83